Time;durP1;ratioP1;P1;durP2;ratioP2;P2;SDS_P1;SDS_P2;PMS_P1;PMS_P2;Temp;Humidity;BMP_temperature;BMP_pressure;BME280_temperature;BME280_humidity;BME280_pressure;Samples;Min_cycle;Max_cycle;Signal;HPM_P1;HPM_P2
2022/02/01 00:01:27;;;;;;;;;;;;;;;11.30;39.91;96885.59;5092635;28;20006;-67
2022/02/01 00:03:54;;;;;;;;;;;;;;;11.29;39.29;96890.09;5107618;28;20258;-69
2022/02/01 00:06:28;;;;;;;;;;;;;;;11.37;40.17;96886.28;5108805;28;19923;-67
2022/02/01 00:19:25;;;;;;;;;;;;;;;11.30;39.77;96877.63;5095225;28;19928;-66
2022/02/01 00:38:02;;;;;;;;;;;;;;;11.20;38.13;96891.47;5110396;28;19924;-65
2022/02/01 00:40:28;;;;;;;;;;;;;;;11.14;38.78;96881.75;5110669;28;19998;-65
2022/02/01 00:42:53;;;;;;;;;;;;;;;11.12;38.08;96893.63;5110567;28;19926;-65
2022/02/01 00:45:19;;;;;;;;;;;;;;;11.04;38.33;96889.44;5110742;28;20022;-65
2022/02/01 00:47:45;;;;;;;;;;;;;;;11.02;37.97;96882.75;5111779;28;19920;-66
2022/02/01 00:50:15;;;;;;;;;;;;;;;11.06;38.40;96889.22;5110252;28;20398;-65
2022/02/01 00:52:41;;;;;;;;;;;;;;;11.08;38.15;96901.25;5110496;28;20306;-66
2022/02/01 00:55:07;;;;;;;;;;;;;;;11.06;38.17;96907.81;5111317;28;19926;-66
2022/02/01 00:57:33;;;;;;;;;;;;;;;11.02;38.12;96901.34;5110554;28;20018;-66
2022/02/01 00:59:58;;;;;;;;;;;;;;;11.07;38.39;96901.50;5076303;28;19920;-65
2022/02/01 01:02:24;;;;;;;;;;;;;;;11.01;38.08;96897.88;5093591;28;19996;-65
2022/02/01 01:04:49;;;;;;;;;;;;;;;11.04;38.17;96893.97;5093146;28;20306;-66
2022/02/01 01:07:15;;;;;;;;;;;;;;;11.00;38.47;96890.97;5111356;28;19963;-65
2022/02/01 01:09:41;;;;;;;;;;;;;;;11.05;38.27;96887.63;5109982;28;19963;-66
2022/02/01 01:12:07;;;;;;;;;;;;;;;11.12;37.85;96883.00;5110311;28;19919;-70
2022/02/01 01:15:06;;;;;;;;;;;;;;;10.93;38.96;96890.22;5109137;28;20010;-66
2022/02/01 01:45:03;;;;;;;;;;;;;;;11.16;40.14;96916.06;5113307;28;19976;-66
2022/02/01 01:55:36;;;;;;;;;;;;;;;11.24;40.69;96905.09;5114106;28;19919;-66
2022/02/01 01:58:02;;;;;;;;;;;;;;;11.22;40.50;96904.53;5096394;28;19919;-66
2022/02/01 02:02:59;;;;;;;;;;;;;;;11.26;40.45;96921.59;5114520;28;20034;-66
2022/02/01 02:05:25;;;;;;;;;;;;;;;11.10;40.55;96922.28;5114981;28;20002;-66
2022/02/01 02:07:51;;;;;;;;;;;;;;;11.02;40.71;96918.09;5114816;28;19945;-66
2022/02/01 02:10:20;;;;;;;;;;;;;;;11.02;40.78;96925.25;5113466;28;20410;-64
2022/02/01 02:12:57;;;;;;;;;;;;;;;10.98;40.22;96918.78;5113238;28;19919;-65
2022/02/01 02:15:24;;;;;;;;;;;;;;;10.82;40.21;96925.53;5096372;28;19920;-66
2022/02/01 02:17:50;;;;;;;;;;;;;;;10.80;40.02;96932.09;5077759;28;19926;-66
2022/02/01 02:20:20;;;;;;;;;;;;;;;10.80;41.25;96930.25;5111671;28;19923;-65
2022/02/01 02:22:46;;;;;;;;;;;;;;;10.83;40.91;96928.97;5094856;28;20395;-67
2022/02/01 02:25:11;;;;;;;;;;;;;;;10.90;41.07;96937.69;5112831;28;19950;-66
2022/02/01 02:27:37;;;;;;;;;;;;;;;10.90;41.38;96932.38;5111948;28;19919;-66
2022/02/01 02:30:03;;;;;;;;;;;;;;;10.87;41.31;96940.78;5095784;28;19923;-65
2022/02/01 02:32:29;;;;;;;;;;;;;;;10.84;40.91;96931.41;5113069;28;19920;-65
2022/02/01 02:34:54;;;;;;;;;;;;;;;10.95;41.06;96935.13;5095789;28;19920;-66
2022/02/01 02:37:27;;;;;;;;;;;;;;;10.84;41.01;96943.91;5112840;28;19927;-65
2022/02/01 02:40:29;;;;;;;;;;;;;;;10.87;40.77;96936.28;5112806;28;20014;-66
2022/02/01 02:45:04;;;;;;;;;;;;;;;10.65;40.75;96937.81;5113845;28;19919;-66
2022/02/01 02:45:45;;;;;;;;;;;;;;;10.64;41.35;96943.34;5113944;28;19924;-66
2022/02/01 02:48:12;;;;;;;;;;;;;;;10.58;41.25;96937.06;5112870;28;19920;-65
2022/02/01 02:50:38;;;;;;;;;;;;;;;10.50;39.52;96947.19;5114540;28;20411;-66
2022/02/01 02:53:03;;;;;;;;;;;;;;;10.04;39.89;96945.81;5112433;28;20013;-66
2022/02/01 02:55:31;;;;;;;;;;;;;;;10.36;41.04;96943.88;5078186;28;19919;-65
2022/02/01 02:57:57;;;;;;;;;;;;;;;9.99;39.77;96950.16;5078799;28;20447;-69
2022/02/01 03:00:23;;;;;;;;;;;;;;;10.27;40.84;96952.34;5112306;28;20017;-65
2022/02/01 03:02:48;;;;;;;;;;;;;;;10.36;41.19;96945.72;5095551;28;19920;-65
2022/02/01 03:05:14;;;;;;;;;;;;;;;10.32;40.89;96949.84;5112456;28;19919;-66
2022/02/01 03:07:39;;;;;;;;;;;;;;;10.47;41.50;96956.38;5112555;28;19964;-66
2022/02/01 03:10:05;;;;;;;;;;;;;;;10.43;40.66;96963.19;5112358;28;19926;-67
2022/02/01 03:12:57;;;;;;;;;;;;;;;10.53;40.78;96968.78;5095310;28;19919;-65
2022/02/01 03:15:36;;;;;;;;;;;;;;;10.56;40.31;96968.34;5112558;28;20010;-66
2022/02/01 03:20:46;;;;;;;;;;;;;;;10.61;40.70;96976.44;5111896;28;20287;-66
2022/02/01 03:23:11;;;;;;;;;;;;;;;10.56;40.82;96970.19;5094700;28;19922;-65
2022/02/01 03:25:37;;;;;;;;;;;;;;;10.65;40.45;96974.97;5094424;28;20383;-65
2022/02/01 03:28:02;;;;;;;;;;;;;;;10.66;39.54;96979.22;5111320;28;19915;-66
2022/02/01 03:30:28;;;;;;;;;;;;;;;10.66;40.17;96981.88;5094395;28;19926;-66
2022/02/01 03:32:54;;;;;;;;;;;;;;;10.57;40.05;96990.34;5094203;28;19916;-65
2022/02/01 03:35:19;;;;;;;;;;;;;;;10.55;40.63;97003.06;5093862;28;19920;-66
2022/02/01 03:37:45;;;;;;;;;;;;;;;10.59;40.55;96998.91;5094372;28;19925;-69
2022/02/01 03:40:15;;;;;;;;;;;;;;;10.57;39.72;97004.44;5077497;28;20299;-65
2022/02/01 03:42:41;;;;;;;;;;;;;;;10.53;40.30;97011.25;5094550;28;20391;-66
2022/02/01 03:45:07;;;;;;;;;;;;;;;10.56;40.50;97007.31;5076977;28;19941;-65
2022/02/01 03:47:34;;;;;;;;;;;;;;;10.50;40.91;97021.47;5112392;28;19964;-65
2022/02/01 03:49:59;;;;;;;;;;;;;;;10.48;40.05;97012.91;5110930;28;20031;-66
2022/02/01 03:52:25;;;;;;;;;;;;;;;10.46;40.69;97018.44;5110802;28;20014;-66
2022/02/01 03:54:51;;;;;;;;;;;;;;;10.44;40.36;97022.38;5110815;28;19934;-66
2022/02/01 03:57:17;;;;;;;;;;;;;;;10.50;39.64;97019.63;5093772;28;19920;-65
2022/02/01 03:59:46;;;;;;;;;;;;;;;10.52;39.65;97024.72;5112104;27;20416;-65
2022/02/01 04:02:12;;;;;;;;;;;;;;;10.53;39.55;97027.16;5110598;28;19920;-65
2022/02/01 04:04:38;;;;;;;;;;;;;;;10.33;39.01;97037.19;5093998;28;19972;-64
2022/02/01 04:07:04;;;;;;;;;;;;;;;10.37;39.78;97042.81;5109513;28;20025;-65
2022/02/01 04:09:30;;;;;;;;;;;;;;;10.30;39.90;97044.75;5110479;28;19919;-65
2022/02/01 04:11:58;;;;;;;;;;;;;;;10.35;40.41;97047.56;5110256;28;19943;-65
2022/02/01 04:14:27;;;;;;;;;;;;;;;10.30;39.19;97040.25;5111338;28;19939;-66
2022/02/01 04:16:53;;;;;;;;;;;;;;;10.31;40.17;97049.00;5110280;28;19977;-65
2022/02/01 04:19:18;;;;;;;;;;;;;;;10.34;39.84;97048.56;5076676;28;20000;-65
2022/02/01 04:22:00;;;;;;;;;;;;;;;10.37;39.87;97048.13;5077210;28;19919;-65
2022/02/01 04:24:26;;;;;;;;;;;;;;;10.28;39.33;97034.34;5112039;28;19926;-65
2022/02/01 04:26:52;;;;;;;;;;;;;;;10.33;39.30;97055.75;5093720;28;19923;-66
2022/02/01 04:29:17;;;;;;;;;;;;;;;10.34;38.88;97052.03;5111976;28;19919;-73
2022/02/01 04:31:43;;;;;;;;;;;;;;;10.37;39.79;97050.78;5110512;28;20237;-64
2022/02/01 04:34:08;;;;;;;;;;;;;;;10.34;39.74;97056.53;5110221;28;19972;-65
2022/02/01 04:36:34;;;;;;;;;;;;;;;10.42;39.58;97064.22;5111548;28;20401;-64
2022/02/01 04:38:59;;;;;;;;;;;;;;;10.37;39.21;97064.88;5110142;28;19965;-67
2022/02/01 04:41:26;;;;;;;;;;;;;;;10.29;38.17;97073.09;5075972;28;19920;-65
2022/02/01 04:43:52;;;;;;;;;;;;;;;10.21;40.46;97063.59;5093406;28;19919;-65
2022/02/01 04:46:18;;;;;;;;;;;;;;;10.00;37.92;97068.44;5106076;28;19999;-66
2022/02/01 04:48:44;;;;;;;;;;;;;;;10.01;39.84;97070.88;5108911;28;19965;-65
2022/02/01 04:51:09;;;;;;;;;;;;;;;9.56;37.86;97079.16;5092021;28;19919;-65
2022/02/01 04:53:35;;;;;;;;;;;;;;;9.57;38.58;97078.13;5109347;28;20007;-66
2022/02/01 04:56:01;;;;;;;;;;;;;;;9.26;38.66;97086.88;5091961;28;19972;-64
2022/02/01 04:58:26;;;;;;;;;;;;;;;9.36;40.61;97086.41;5110272;28;19920;-64
2022/02/01 05:00:52;;;;;;;;;;;;;;;9.34;40.98;97094.56;5108912;28;19969;-65
2022/02/01 05:03:17;;;;;;;;;;;;;;;9.43;41.03;97098.59;5110523;28;19919;-65
2022/02/01 05:05:44;;;;;;;;;;;;;;;9.56;40.98;97100.34;5108983;28;20405;-65
2022/02/01 05:08:11;;;;;;;;;;;;;;;9.57;40.35;97117.88;5108682;28;19930;-65
2022/02/01 05:10:37;;;;;;;;;;;;;;;9.72;41.23;97118.38;5110328;28;20427;-65
2022/02/01 05:15:48;;;;;;;;;;;;;;;9.58;38.84;97130.91;5110176;28;19924;-65
2022/02/01 05:18:18;;;;;;;;;;;;;;;9.61;40.29;97122.53;5111537;28;20006;-64
2022/02/01 05:20:55;;;;;;;;;;;;;;;9.65;39.30;97134.34;5114818;28;20470;-67
2022/02/01 05:23:22;;;;;;;;;;;;;;;9.63;39.96;97117.03;5113682;28;19995;-69
2022/02/01 05:25:48;;;;;;;;;;;;;;;9.50;39.24;97125.84;5114089;28;20418;-67
2022/02/01 05:28:14;;;;;;;;;;;;;;;9.54;39.99;97126.25;5096290;28;19919;-68
2022/02/01 05:30:39;;;;;;;;;;;;;;;9.31;39.23;97137.38;5078827;28;19919;-67
2022/02/01 05:33:05;;;;;;;;;;;;;;;9.51;38.73;97143.38;5079341;28;19919;-67
2022/02/01 05:35:31;;;;;;;;;;;;;;;9.10;39.15;97139.50;5113030;28;19958;-67
2022/02/01 05:37:57;;;;;;;;;;;;;;;9.23;40.03;97147.38;5095832;28;19919;-66
2022/02/01 05:40:23;;;;;;;;;;;;;;;9.27;39.68;97153.91;5095538;28;19920;-69
2022/02/01 05:43:01;;;;;;;;;;;;;;;9.32;40.22;97154.06;5079070;28;19927;-66
2022/02/01 05:45:27;;;;;;;;;;;;;;;9.43;39.31;97154.22;5080905;28;19919;-69
2022/02/01 05:47:53;;;;;;;;;;;;;;;9.33;38.18;97153.84;5095548;28;20287;-68
2022/02/01 05:50:19;;;;;;;;;;;;;;;8.90;38.35;97150.16;5078490;28;19919;-68
2022/02/01 05:52:44;;;;;;;;;;;;;;;8.93;39.52;97159.50;5095885;28;19919;-67
2022/02/01 05:55:14;;;;;;;;;;;;;;;9.00;39.67;97152.34;5095605;28;19927;-66
2022/02/01 05:57:40;;;;;;;;;;;;;;;8.84;39.08;97161.53;5079154;28;19920;-66
2022/02/01 06:00:06;;;;;;;;;;;;;;;9.11;39.42;97160.47;5112110;28;19926;-69
2022/02/01 06:02:39;;;;;;;;;;;;;;;9.13;39.72;97160.25;5112489;28;19960;-67
2022/02/01 06:05:05;;;;;;;;;;;;;;;8.99;38.72;97163.97;5112423;28;20322;-66
2022/02/01 06:07:30;;;;;;;;;;;;;;;8.71;39.10;97166.88;5078275;28;20276;-67
2022/02/01 06:09:56;;;;;;;;;;;;;;;9.04;39.87;97174.75;5078212;28;19976;-67
2022/02/01 06:12:21;;;;;;;;;;;;;;;9.24;40.18;97167.56;5113522;28;19919;-67
2022/02/01 06:14:47;;;;;;;;;;;;;;;9.42;39.49;97184.41;5113502;28;19919;-67
2022/02/01 06:17:13;;;;;;;;;;;;;;;9.51;39.94;97185.78;5094900;28;19948;-66
2022/02/01 06:19:39;;;;;;;;;;;;;;;9.42;39.77;97181.75;5112245;28;20408;-66
2022/02/01 06:22:05;;;;;;;;;;;;;;;9.48;40.03;97185.38;5078444;28;20342;-67
2022/02/01 06:24:32;;;;;;;;;;;;;;;9.43;40.16;97193.97;5112703;28;19925;-66
2022/02/01 06:26:58;;;;;;;;;;;;;;;9.51;40.10;97203.50;5095025;28;19919;-66
2022/02/01 06:29:23;;;;;;;;;;;;;;;9.57;40.16;97200.00;5112745;28;20436;-72
2022/02/01 06:31:49;;;;;;;;;;;;;;;9.57;39.84;97211.44;5112299;28;20383;-67
2022/02/01 06:34:14;;;;;;;;;;;;;;;9.68;39.79;97205.47;5094877;28;19926;-68
2022/02/01 06:36:40;;;;;;;;;;;;;;;9.68;39.32;97213.41;5113221;28;20387;-68
2022/02/01 06:39:07;;;;;;;;;;;;;;;9.69;39.88;97207.09;5094686;28;19919;-69
2022/02/01 06:41:33;;;;;;;;;;;;;;;9.74;39.37;97211.75;5111964;28;20089;-66
2022/02/01 06:43:59;;;;;;;;;;;;;;;9.86;39.53;97221.47;5094718;28;20022;-68
2022/02/01 06:46:25;;;;;;;;;;;;;;;9.92;39.86;97225.09;5093720;28;20010;-70
2022/02/01 06:48:51;;;;;;;;;;;;;;;10.02;39.75;97230.78;5094729;28;20294;-69
2022/02/01 06:51:19;;;;;;;;;;;;;;;10.06;39.52;97222.19;5094652;28;19919;-68
2022/02/01 06:53:45;;;;;;;;;;;;;;;10.12;39.07;97229.31;5112822;28;19991;-68
2022/02/01 06:56:29;;;;;;;;;;;;;;;10.08;39.59;97235.25;5112821;28;19993;-68
2022/02/01 06:58:58;;;;;;;;;;;;;;;10.10;39.13;97227.91;5109382;28;19920;-75
2022/02/01 07:01:49;;;;;;;;;;;;;;;10.13;39.27;97233.56;5110547;28;19966;-67
2022/02/01 07:04:14;;;;;;;;;;;;;;;10.03;38.63;97235.88;5110138;28;19963;-68
2022/02/01 07:06:40;;;;;;;;;;;;;;;10.27;38.82;97246.78;5075652;28;19942;-69
2022/02/01 07:09:06;;;;;;;;;;;;;;;10.39;39.32;97240.56;5092499;28;19919;-68
2022/02/01 07:11:39;;;;;;;;;;;;;;;10.33;39.58;97244.09;5109625;28;20014;-69
2022/02/01 07:14:05;;;;;;;;;;;;;;;10.37;38.62;97252.41;5094105;28;19920;-70
2022/02/01 07:16:30;;;;;;;;;;;;;;;10.38;39.27;97249.53;5075979;28;19920;-68
2022/02/01 07:18:56;;;;;;;;;;;;;;;10.50;38.87;97254.97;5090751;28;20007;-68
2022/02/01 07:21:24;;;;;;;;;;;;;;;10.45;38.50;97257.47;5093258;28;19923;-69
2022/02/01 07:23:52;;;;;;;;;;;;;;;10.45;39.03;97254.81;5075995;28;19916;-69
2022/02/01 07:26:21;;;;;;;;;;;;;;;10.48;39.24;97262.34;5091771;28;19920;-69
2022/02/01 07:28:47;;;;;;;;;;;;;;;10.54;38.71;97261.47;5070065;28;19916;-69
2022/02/01 07:31:15;;;;;;;;;;;;;;;10.44;38.49;97255.84;5091910;28;20024;-71
2022/02/01 07:33:41;;;;;;;;;;;;;;;10.49;39.13;97259.47;5092509;28;19916;-70
2022/02/01 07:36:07;;;;;;;;;;;;;;;10.49;38.85;97264.78;5072370;28;19927;-69
2022/02/01 07:38:33;;;;;;;;;;;;;;;10.41;38.11;97266.88;5091094;28;19923;-66
2022/02/01 07:40:59;;;;;;;;;;;;;;;10.41;37.21;97274.84;5084727;28;19924;-68
2022/02/01 07:43:31;;;;;;;;;;;;;;;10.38;37.17;97275.28;5091681;28;20033;-72
2022/02/01 07:46:19;;;;;;;;;;;;;;;10.29;37.06;97284.53;5075287;28;20311;-67
2022/02/01 07:48:48;;;;;;;;;;;;;;;10.12;37.30;97284.19;5095063;28;20315;-68
2022/02/01 07:51:13;;;;;;;;;;;;;;;10.18;38.29;97278.03;5089881;28;19920;-68
2022/02/01 07:53:39;;;;;;;;;;;;;;;10.07;38.36;97282.16;5075183;28;19920;-68
2022/02/01 07:56:05;;;;;;;;;;;;;;;10.23;37.92;97286.97;5074640;28;20393;-70
2022/02/01 07:58:31;;;;;;;;;;;;;;;10.27;38.07;97285.53;5089146;28;19941;-70
2022/02/01 08:00:56;;;;;;;;;;;;;;;10.22;38.53;97290.66;5091478;28;19919;-70
2022/02/01 08:03:22;;;;;;;;;;;;;;;10.27;39.42;97291.88;5074797;28;20015;-69
2022/02/01 08:05:47;;;;;;;;;;;;;;;10.30;38.63;97288.78;5069306;28;19920;-70
2022/02/01 08:08:13;;;;;;;;;;;;;;;10.42;39.14;97289.72;5083539;28;20749;-69
2022/02/01 08:10:44;;;;;;;;;;;;;;;10.60;39.31;97289.81;5108554;28;19924;-70
2022/02/01 08:19:16;;;;;;;;;;;;;;;10.60;39.25;97298.59;5093929;28;20020;-71
2022/02/01 08:21:41;;;;;;;;;;;;;;;10.47;38.98;97305.81;5089839;28;19919;-70
2022/02/01 08:24:07;;;;;;;;;;;;;;;10.34;38.50;97305.88;5071656;28;20406;-71
2022/02/01 08:26:33;;;;;;;;;;;;;;;10.41;39.49;97310.13;5074280;28;19924;-67
2022/02/01 08:28:58;;;;;;;;;;;;;;;10.22;38.56;97306.56;5072792;28;19923;-70
2022/02/01 08:31:24;;;;;;;;;;;;;;;10.34;39.26;97316.50;5091950;28;19963;-72
2022/02/01 08:33:49;;;;;;;;;;;;;;;10.49;38.80;97312.53;5091770;28;19920;-69
2022/02/01 08:36:15;;;;;;;;;;;;;;;10.65;38.67;97308.56;5055767;28;19927;-70
2022/02/01 08:38:41;;;;;;;;;;;;;;;10.05;37.36;97315.19;5091981;28;19920;-68
2022/02/01 08:41:06;;;;;;;;;;;;;;;9.69;38.25;97310.44;5075332;28;19950;-68
2022/02/01 08:43:32;;;;;;;;;;;;;;;10.04;38.38;97309.06;5092329;28;19958;-67
2022/02/01 08:45:58;;;;;;;;;;;;;;;10.15;39.37;97307.63;5109131;28;20239;-68
2022/02/01 08:48:24;;;;;;;;;;;;;;;10.37;38.27;97313.41;5109454;28;19919;-70
2022/02/01 08:50:50;;;;;;;;;;;;;;;10.39;39.30;97306.06;5110269;28;20006;-69
2022/02/01 08:53:26;;;;;;;;;;;;;;;10.48;38.62;97310.09;5091783;28;19962;-69
2022/02/01 08:58:26;;;;;;;;;;;;;;;10.45;38.96;97305.22;5075626;28;20022;-69
2022/02/01 09:00:52;;;;;;;;;;;;;;;10.24;39.75;97307.16;5072571;28;20399;-69
2022/02/01 09:03:18;;;;;;;;;;;;;;;10.49;39.60;97307.22;5054901;28;19926;-67
2022/02/01 09:05:51;;;;;;;;;;;;;;;10.53;38.27;97305.78;5092853;28;20014;-67
2022/02/01 09:08:17;;;;;;;;;;;;;;;10.35;38.13;97310.97;5094172;28;20307;-67
2022/02/01 09:10:42;;;;;;;;;;;;;;;10.13;39.63;97310.47;5071603;28;19924;-67
2022/02/01 09:13:08;;;;;;;;;;;;;;;10.39;40.10;97303.41;5087507;28;20037;-67
2022/02/01 09:15:34;;;;;;;;;;;;;;;10.24;38.46;97309.81;5055935;28;19973;-67
2022/02/01 09:18:00;;;;;;;;;;;;;;;9.88;38.11;97303.44;5088574;28;19923;-67
2022/02/01 09:20:28;;;;;;;;;;;;;;;9.96;39.03;97316.47;5088456;28;19935;-67
2022/02/01 09:22:54;;;;;;;;;;;;;;;9.97;38.73;97323.38;5070738;28;19919;-67
2022/02/01 09:25:20;;;;;;;;;;;;;;;10.01;39.34;97313.97;5071781;28;20010;-67
2022/02/01 09:27:47;;;;;;;;;;;;;;;10.29;39.75;97313.69;5088398;28;19927;-66
2022/02/01 09:30:14;;;;;;;;;;;;;;;10.50;39.19;97321.31;5087911;28;20051;-67
2022/02/01 09:32:40;;;;;;;;;;;;;;;10.46;38.93;97326.22;5086241;28;19920;-67
2022/02/01 09:35:06;;;;;;;;;;;;;;;10.06;37.95;97328.25;5087557;28;19920;-67
2022/02/01 09:37:32;;;;;;;;;;;;;;;9.57;38.65;97319.22;5069825;28;19920;-68
2022/02/01 09:39:57;;;;;;;;;;;;;;;9.85;38.82;97327.72;5069276;28;19946;-67
2022/02/01 09:42:27;;;;;;;;;;;;;;;10.00;39.68;97325.63;5087533;28;19920;-67
2022/02/01 09:44:53;;;;;;;;;;;;;;;10.23;40.14;97318.00;5087292;28;19965;-67
2022/02/01 09:47:29;;;;;;;;;;;;;;;9.99;38.49;97330.09;5052318;28;20624;-67
2022/02/01 09:49:55;;;;;;;;;;;;;;;9.88;39.04;97324.66;5109898;28;19920;-66
2022/02/01 09:52:22;;;;;;;;;;;;;;;10.07;39.58;97329.09;5109754;28;19926;-67
2022/02/01 09:54:51;;;;;;;;;;;;;;;9.86;38.55;97331.97;5072394;28;19920;-68
2022/02/01 09:57:20;;;;;;;;;;;;;;;10.21;39.69;97328.81;5071698;28;20000;-67
2022/02/01 09:59:52;;;;;;;;;;;;;;;10.50;38.75;97318.66;5089407;28;19958;-67
2022/02/01 10:02:19;;;;;;;;;;;;;;;10.65;38.87;97320.00;5088439;28;19919;-67
2022/02/01 10:04:47;;;;;;;;;;;;;;;10.80;38.89;97319.66;5090241;28;19919;-68
2022/02/01 10:07:14;;;;;;;;;;;;;;;10.88;38.01;97317.59;5092043;28;19919;-67
2022/02/01 10:09:49;;;;;;;;;;;;;;;10.98;37.25;97319.75;5091104;28;19923;-66
2022/02/01 10:12:16;;;;;;;;;;;;;;;11.05;36.89;97317.84;5092787;28;19920;-67
2022/02/01 10:14:51;;;;;;;;;;;;;;;11.43;37.93;97326.50;5090981;28;19919;-66
2022/02/01 10:17:24;;;;;;;;;;;;;;;11.38;35.60;97329.81;5074146;28;20299;-67
2022/02/01 10:19:49;;;;;;;;;;;;;;;11.44;35.63;97333.44;5102673;28;20398;-68
2022/02/01 10:22:15;;;;;;;;;;;;;;;11.31;35.52;97330.91;5090468;28;19966;-68
2022/02/01 10:24:41;;;;;;;;;;;;;;;10.89;36.40;97342.28;5075174;28;19944;-67
2022/02/01 10:27:08;;;;;;;;;;;;;;;10.72;36.74;97349.13;5091767;28;19926;-68
2022/02/01 10:29:35;;;;;;;;;;;;;;;10.54;36.68;97341.09;5092363;28;19973;-67
2022/02/01 10:32:11;;;;;;;;;;;;;;;10.26;37.41;97338.78;5101777;28;19973;-68
2022/02/01 10:37:13;;;;;;;;;;;;;;;10.13;37.89;97342.31;5091070;28;19959;-67
2022/02/01 10:39:39;;;;;;;;;;;;;;;10.32;37.98;97331.84;5073845;28;19923;-67
2022/02/01 10:42:08;;;;;;;;;;;;;;;10.29;38.21;97333.06;5091201;28;19919;-67
2022/02/01 10:44:38;;;;;;;;;;;;;;;10.42;38.40;97326.88;5089719;28;19991;-67
2022/02/01 10:47:05;;;;;;;;;;;;;;;10.22;37.82;97330.44;5091701;28;19919;-68
2022/02/01 10:49:31;;;;;;;;;;;;;;;9.95;38.04;97326.25;5090971;28;19920;-67
2022/02/01 10:52:07;;;;;;;;;;;;;;;10.39;39.72;97314.84;5091118;28;19981;-67
2022/02/01 10:54:33;;;;;;;;;;;;;;;10.14;37.75;97330.69;5057704;28;19932;-67
2022/02/01 10:56:59;;;;;;;;;;;;;;;10.35;39.59;97334.84;5057987;28;19946;-69
2022/02/01 10:59:25;;;;;;;;;;;;;;;10.60;39.13;97337.56;5040888;28;19927;-68
2022/02/01 11:01:55;;;;;;;;;;;;;;;10.42;37.47;97358.72;5090771;28;20236;-68
2022/02/01 11:04:21;;;;;;;;;;;;;;;9.69;37.85;97350.19;5090763;28;19978;-67
2022/02/01 11:06:53;;;;;;;;;;;;;;;9.98;39.48;97344.38;5074065;28;19973;-67
2022/02/01 11:09:23;;;;;;;;;;;;;;;9.73;37.41;97353.25;5041330;28;19923;-68
2022/02/01 11:11:50;;;;;;;;;;;;;;;9.79;39.90;97347.91;5091213;28;19967;-68
2022/02/01 11:14:19;;;;;;;;;;;;;;;10.03;38.67;97354.34;5056758;28;19920;-67
2022/02/01 11:16:45;;;;;;;;;;;;;;;9.86;37.40;97358.50;5056651;28;19927;-67
2022/02/01 11:19:10;;;;;;;;;;;;;;;9.88;38.21;97343.22;5073710;28;19920;-68
2022/02/01 11:21:50;;;;;;;;;;;;;;;9.50;37.65;97353.69;5092001;28;19920;-67
2022/02/01 11:24:33;;;;;;;;;;;;;;;9.63;37.29;97361.63;5091846;28;19948;-67
2022/02/01 11:27:03;;;;;;;;;;;;;;;10.14;38.41;97361.69;5090546;28;19923;-67
2022/02/01 11:30:11;;;;;;;;;;;;;;;10.51;38.91;97345.00;5073209;28;19931;-67
2022/02/01 11:32:18;;;;;;;;;;;;;;;11.26;38.09;97352.81;5081653;28;20006;-67
2022/02/01 11:34:44;;;;;;;;;;;;;;;11.72;37.75;97325.81;5073209;28;19927;-67
2022/02/01 11:37:11;;;;;;;;;;;;;;;11.59;36.37;97358.63;5095050;28;19920;-67
2022/02/01 11:39:57;;;;;;;;;;;;;;;11.58;36.41;97350.88;5110024;28;20441;-67
2022/02/01 11:42:29;;;;;;;;;;;;;;;11.43;36.61;97366.34;5102470;28;19920;-67
2022/02/01 11:45:02;;;;;;;;;;;;;;;11.31;37.59;97360.13;5091260;28;20022;-68
2022/02/01 11:47:36;;;;;;;;;;;;;;;10.96;37.85;97353.69;5103372;28;20383;-67
2022/02/01 11:50:12;;;;;;;;;;;;;;;10.80;37.69;97367.47;5108468;28;19941;-68
2022/02/01 11:52:42;;;;;;;;;;;;;;;10.91;37.91;97364.94;5091712;28;19920;-67
2022/02/01 11:55:08;;;;;;;;;;;;;;;10.83;36.54;97382.97;5089737;28;20388;-67
2022/02/01 11:57:34;;;;;;;;;;;;;;;10.73;37.13;97366.69;5088216;28;19942;-66
2022/02/01 12:00:18;;;;;;;;;;;;;;;10.15;38.35;97368.63;5095510;28;20386;-67
2022/02/01 12:02:52;;;;;;;;;;;;;;;10.13;37.13;97374.13;5110249;28;19923;-66
2022/02/01 12:05:27;;;;;;;;;;;;;;;10.35;38.09;97368.56;5111503;28;19920;-67
2022/02/01 12:08:03;;;;;;;;;;;;;;;10.41;36.60;97373.00;5094624;28;19959;-66
2022/02/01 12:10:30;;;;;;;;;;;;;;;10.18;36.25;97384.94;5102144;28;19923;-66
2022/02/01 12:12:56;;;;;;;;;;;;;;;10.34;37.11;97382.81;5110678;28;20329;-67
2022/02/01 12:15:32;;;;;;;;;;;;;;;10.27;36.79;97382.88;5101464;28;20198;-64
2022/02/01 12:18:02;;;;;;;;;;;;;;;10.08;37.42;97384.59;5090331;28;19965;-65
2022/02/01 12:20:27;;;;;;;;;;;;;;;10.08;38.88;97391.72;5072178;28;20449;-65
2022/02/01 12:22:59;;;;;;;;;;;;;;;10.08;38.29;97386.41;5072088;28;19920;-65
2022/02/01 12:25:25;;;;;;;;;;;;;;;10.07;38.60;97388.22;5090195;28;19964;-66
2022/02/01 12:27:51;;;;;;;;;;;;;;;10.04;39.31;97393.94;5105875;28;20015;-68
2022/02/01 12:30:17;;;;;;;;;;;;;;;10.16;37.74;97405.53;5106292;28;20014;-66
2022/02/01 12:32:52;;;;;;;;;;;;;;;10.32;38.73;97403.47;5108375;28;19973;-67
2022/02/01 12:35:28;;;;;;;;;;;;;;;10.39;38.38;97401.59;5109618;28;19950;-66
2022/02/01 12:38:02;;;;;;;;;;;;;;;10.05;37.24;97413.31;5108051;28;20299;-67
2022/02/01 12:40:27;;;;;;;;;;;;;;;9.91;37.94;97414.38;5090085;28;19955;-67
2022/02/01 12:42:54;;;;;;;;;;;;;;;10.14;38.99;97414.75;5091267;28;19954;-68
2022/02/01 12:48:04;;;;;;;;;;;;;;;10.30;38.90;97416.94;5106207;28;19919;-68
2022/02/01 12:50:30;;;;;;;;;;;;;;;10.33;37.32;97418.34;5109629;28;19961;-67
2022/02/01 12:52:56;;;;;;;;;;;;;;;10.36;38.96;97410.78;5108944;28;19970;-67
2022/02/01 12:55:24;;;;;;;;;;;;;;;10.42;37.10;97425.88;5109268;28;19920;-67
2022/02/01 12:57:49;;;;;;;;;;;;;;;10.34;38.59;97419.97;5107558;28;19965;-67
2022/02/01 13:00:16;;;;;;;;;;;;;;;10.40;38.87;97425.25;5106866;28;19920;-67
2022/02/01 13:02:42;;;;;;;;;;;;;;;10.29;38.41;97423.25;5107424;28;20340;-80
2022/02/01 13:05:09;;;;;;;;;;;;;;;10.42;38.95;97422.38;5049082;28;19920;-79
2022/02/01 13:16:17;;;;;;;;;;;;;;;10.35;37.38;97433.03;5085887;28;20050;-74
2022/02/01 13:21:04;;;;;;;;;;;;;;;10.32;38.03;97433.44;5105515;28;19924;-68
2022/02/01 13:23:36;;;;;;;;;;;;;;;10.47;38.61;97443.81;5089966;28;19920;-75
2022/02/01 13:26:11;;;;;;;;;;;;;;;10.44;38.37;97438.91;5071430;28;19920;-74
2022/02/01 13:28:40;;;;;;;;;;;;;;;10.40;38.53;97437.69;5070936;28;20014;-75
2022/02/01 13:31:07;;;;;;;;;;;;;;;10.37;38.97;97438.94;5088132;28;19943;-73
2022/02/01 13:33:46;;;;;;;;;;;;;;;10.32;38.67;97436.09;5088091;28;20010;-69
2022/02/01 13:36:12;;;;;;;;;;;;;;;10.33;38.63;97450.19;5070758;28;19924;-74
2022/02/01 13:38:49;;;;;;;;;;;;;;;10.35;38.84;97446.28;5088993;28;20002;-75
2022/02/01 13:41:14;;;;;;;;;;;;;;;10.30;38.27;97454.09;5092048;28;20014;-74
2022/02/01 13:43:51;;;;;;;;;;;;;;;10.08;37.57;97458.00;5109420;28;20129;-74
2022/02/01 13:46:18;;;;;;;;;;;;;;;10.21;39.06;97463.25;5092667;28;19941;-74
2022/02/01 13:48:43;;;;;;;;;;;;;;;10.24;38.00;97462.84;5073672;28;19938;-75
2022/02/01 13:51:10;;;;;;;;;;;;;;;10.11;38.76;97453.13;5075177;28;19924;-75
2022/02/01 13:53:36;;;;;;;;;;;;;;;10.15;39.17;97456.13;5092149;28;19927;-73
2022/02/01 13:56:06;;;;;;;;;;;;;;;10.27;39.43;97466.94;5093306;28;19919;-74
2022/02/01 13:58:36;;;;;;;;;;;;;;;10.25;39.50;97464.50;5093087;28;19919;-74
2022/02/01 14:01:02;;;;;;;;;;;;;;;10.18;38.09;97467.16;5092405;28;19926;-74
2022/02/01 14:03:36;;;;;;;;;;;;;;;10.04;37.05;97478.78;5092150;28;19919;-74
2022/02/01 14:06:45;;;;;;;;;;;;;;;9.88;38.09;97473.94;5092440;28;19919;-74
2022/02/01 14:09:21;;;;;;;;;;;;;;;10.12;39.23;97481.25;5105195;28;20023;-73
2022/02/01 14:34:54;;;;;;;;;;;;;;;9.71;37.92;97501.06;5091823;28;19938;-76
2022/02/01 14:37:29;;;;;;;;;;;;;;;9.64;37.72;97509.00;5091442;28;20291;-73
2022/02/01 14:43:40;;;;;;;;;;;;;;;9.63;38.06;97509.19;5076269;28;19967;-73
2022/02/01 14:45:25;;;;;;;;;;;;;;;9.42;38.54;97512.88;5070153;28;20411;-74
2022/02/01 14:47:50;;;;;;;;;;;;;;;9.49;38.79;97516.31;5057661;28;19920;-74
2022/02/01 14:50:17;;;;;;;;;;;;;;;9.44;38.50;97516.09;5057275;28;19920;-74
2022/02/01 14:52:42;;;;;;;;;;;;;;;9.43;38.68;97503.88;5106703;28;20332;-71
2022/02/01 14:55:10;;;;;;;;;;;;;;;9.48;38.74;97508.59;5111848;28;19978;-71
2022/02/01 15:11:25;;;;;;;;;;;;;;;9.29;40.42;97509.38;5091267;28;19920;-77